TimeEST,TemperatureF,Dew PointF,Humidity,Sea Level PressureIn,VisibilityMPH,Wind Direction,Wind SpeedMPH,Gust SpeedMPH,PrecipitationIn,Events,Conditions,WindDirDegrees,DateUTC
12:15 AM,21.2,19.4,93,30.63,5.0,SSW,3.5,-,N/A,,Clear,200,2012-11-19 05:15:00
12:55 AM,21.2,19.4,93,30.62,5.0,Calm,Calm,-,N/A,,Clear,0,2012-11-19 05:55:00
1:15 AM,23.0,19.4,86,30.62,5.0,Calm,Calm,-,N/A,,Clear,0,2012-11-19 06:15:00
1:35 AM,23.0,19.4,86,30.62,7.0,Calm,Calm,-,N/A,,Clear,0,2012-11-19 06:35:00
1:55 AM,21.2,19.4,93,30.62,7.0,Calm,Calm,-,N/A,,Clear,0,2012-11-19 06:55:00
2:15 AM,21.2,19.4,93,30.61,7.0,Calm,Calm,-,N/A,,Clear,0,2012-11-19 07:15:00
2:35 AM,21.2,17.6,86,30.61,7.0,Calm,Calm,-,N/A,,Clear,0,2012-11-19 07:35:00
2:56 AM,21.2,17.6,86,30.60,7.0,Calm,Calm,-,N/A,,Clear,0,2012-11-19 07:56:00
3:15 AM,19.4,17.6,93,30.60,5.0,Calm,Calm,-,N/A,,Clear,0,2012-11-19 08:15:00
3:35 AM,21.2,19.4,93,30.60,7.0,Calm,Calm,-,N/A,,Clear,0,2012-11-19 08:35:00
3:55 AM,19.4,17.6,93,30.60,9.0,Calm,Calm,-,N/A,,Clear,0,2012-11-19 08:55:00
4:35 AM,19.4,17.6,93,30.58,7.0,Calm,Calm,-,N/A,,Mostly Cloudy,0,2012-11-19 09:35:00
4:55 AM,19.4,17.6,93,30.58,8.0,Calm,Calm,-,N/A,,Overcast,0,2012-11-19 09:55:00
5:15 AM,19.4,17.6,93,30.58,0.2,Calm,Calm,-,N/A,,Overcast,0,2012-11-19 10:15:00
5:35 AM,19.4,17.6,93,30.58,0.2,Calm,Calm,-,N/A,,Overcast,0,2012-11-19 10:35:00
5:55 AM,19.4,17.6,93,30.59,1.2,Calm,Calm,-,N/A,,Overcast,0,2012-11-19 10:55:00
6:15 AM,19.4,15.8,86,30.58,9.0,Calm,Calm,-,N/A,,Partly Cloudy,0,2012-11-19 11:15:00
6:35 AM,19.4,15.8,86,30.58,7.0,Calm,Calm,-,N/A,,Mostly Cloudy,0,2012-11-19 11:35:00
7:15 AM,19.4,15.8,86,30.57,5.0,Calm,Calm,-,N/A,,Clear,0,2012-11-19 12:15:00
7:35 AM,19.4,15.8,86,30.56,5.0,Calm,Calm,-,N/A,,Clear,0,2012-11-19 12:35:00
7:55 AM,19.4,15.8,86,30.56,6.0,Calm,Calm,-,N/A,,Clear,0,2012-11-19 12:55:00
8:35 AM,23.0,21.2,93,30.54,6.0,Calm,Calm,-,N/A,,Clear,0,2012-11-19 13:35:00
8:55 AM,24.8,21.2,86,30.54,9.0,Calm,Calm,-,N/A,,Clear,0,2012-11-19 13:55:00
9:15 AM,26.6,24.8,93,30.54,10.0,Calm,Calm,-,N/A,,Clear,0,2012-11-19 14:15:00
9:35 AM,28.4,26.6,93,30.54,10.0,Calm,Calm,-,N/A,,Clear,0,2012-11-19 14:35:00
9:55 AM,28.4,26.6,93,30.53,10.0,Calm,Calm,-,N/A,,Clear,0,2012-11-19 14:55:00
10:15 AM,32.0,28.4,87,30.52,10.0,Calm,Calm,-,N/A,,Clear,0,2012-11-19 15:15:00
10:35 AM,33.8,28.4,81,30.51,9.0,Calm,Calm,-,N/A,,Clear,0,2012-11-19 15:35:00
10:55 AM,37.4,26.6,65,30.49,10.0,Calm,Calm,-,N/A,,Clear,0,2012-11-19 15:55:00
11:15 AM,39.2,26.6,61,30.48,10.0,Calm,Calm,-,N/A,,Clear,0,2012-11-19 16:15:00
11:35 AM,39.2,26.6,61,30.47,10.0,Calm,Calm,-,N/A,,Clear,0,2012-11-19 16:35:00
11:55 AM,41.0,26.6,57,30.46,10.0,Calm,Calm,-,N/A,,Clear,0,2012-11-19 16:55:00
12:15 PM,42.8,26.6,53,30.45,10.0,Calm,Calm,-,N/A,,Clear,0,2012-11-19 17:15:00
12:35 PM,44.6,28.4,53,30.43,10.0,Calm,Calm,-,N/A,,Clear,0,2012-11-19 17:35:00
12:55 PM,44.6,28.4,53,30.43,10.0,Calm,Calm,-,N/A,,Clear,0,2012-11-19 17:55:00
1:15 PM,44.6,28.4,53,30.42,10.0,Calm,Calm,-,N/A,,Clear,0,2012-11-19 18:15:00
1:35 PM,46.4,28.4,50,30.41,10.0,Calm,Calm,-,N/A,,Clear,0,2012-11-19 18:35:00
1:55 PM,46.4,28.4,50,30.39,10.0,Calm,Calm,-,N/A,,Clear,0,2012-11-19 18:55:00
2:35 PM,48.2,28.4,46,30.38,10.0,Calm,Calm,-,N/A,,Clear,0,2012-11-19 19:35:00
2:55 PM,46.4,26.6,46,30.38,10.0,Calm,Calm,-,N/A,,Clear,0,2012-11-19 19:55:00
3:15 PM,46.4,26.6,46,30.38,10.0,Calm,Calm,-,N/A,,Clear,0,2012-11-19 20:15:00
3:35 PM,46.4,26.6,46,30.37,10.0,Calm,Calm,-,N/A,,Clear,0,2012-11-19 20:35:00
3:55 PM,44.6,28.4,53,30.37,10.0,Calm,Calm,-,N/A,,Clear,0,2012-11-19 20:55:00
4:35 PM,37.4,26.6,65,30.36,10.0,Calm,Calm,-,N/A,,Clear,0,2012-11-19 21:35:00
5:15 PM,33.8,26.6,75,30.36,10.0,Calm,Calm,-,N/A,,Clear,0,2012-11-19 22:15:00
5:35 PM,32.0,26.6,80,30.37,10.0,Calm,Calm,-,N/A,,Clear,0,2012-11-19 22:35:00
5:55 PM,30.2,24.8,80,30.36,10.0,Calm,Calm,-,N/A,,Clear,0,2012-11-19 22:55:00
6:15 PM,30.2,24.8,80,30.36,10.0,Calm,Calm,-,N/A,,Clear,0,2012-11-19 23:15:00
6:55 PM,28.4,24.8,86,30.36,10.0,Calm,Calm,-,N/A,,Clear,0,2012-11-19 23:55:00
7:35 PM,28.4,24.8,86,30.35,10.0,Calm,Calm,-,N/A,,Clear,0,2012-11-20 00:35:00
7:55 PM,26.6,24.8,93,30.34,10.0,Calm,Calm,-,N/A,,Clear,0,2012-11-20 00:55:00
8:15 PM,26.6,24.8,93,30.34,10.0,Calm,Calm,-,N/A,,Clear,0,2012-11-20 01:15:00
8:35 PM,26.6,24.8,93,30.33,10.0,Calm,Calm,-,N/A,,Clear,0,2012-11-20 01:35:00
9:15 PM,26.6,24.8,93,30.33,10.0,Calm,Calm,-,N/A,,Clear,0,2012-11-20 02:15:00
9:35 PM,24.8,21.2,86,30.32,10.0,Calm,Calm,-,N/A,,Clear,0,2012-11-20 02:35:00
9:55 PM,24.8,21.2,86,30.31,9.0,Calm,Calm,-,N/A,,Clear,0,2012-11-20 02:55:00
10:15 PM,24.8,21.2,86,30.30,10.0,Calm,Calm,-,N/A,,Clear,0,2012-11-20 03:15:00
10:55 PM,24.8,21.2,86,30.30,9.0,Calm,Calm,-,N/A,,Clear,0,2012-11-20 03:55:00
11:15 PM,24.8,21.2,86,30.30,8.0,Calm,Calm,-,N/A,,Clear,0,2012-11-20 04:15:00
11:35 PM,23.0,19.4,86,30.29,9.0,Calm,Calm,-,N/A,,Clear,0,2012-11-20 04:35:00
11:55 PM,24.8,21.2,86,30.28,7.0,Calm,Calm,-,N/A,,Clear,0,2012-11-20 04:55:00